Terminal Aerodrome Forecast
Issued by NWS

Home | Current Version | Previous Version | Text Only | Print | Product List | Glossary On
Versions: 1 2 3 4 5 6 7 8 9 10 11 12 13 14 15 16 17 18 19 20 21 22 23 24
000
FTUS46 KEKA 302300 RRA
TAFCEC
TAF
KCEC 302342Z 3100/3124 19009KT 5SM BR OVC003
     FM310300 17006KT 2SM BR OVC002
      TEMPO 3103/3106 3/4SM BR OVC002
     FM310600 17003KT 3/4SM BR OVC002
     FM311800 24007KT 6SM BR BKN003=

USA.gov is the U.S. government's official web portal to all federal, state and local government web resources and services.